Deptford Township, New Jersey
Current Conditions -  °F | °C
As of 9:54 AM on Sunday 21 Dec 2014 (Local Time) from KPHL Reporting Station
Scattered Clouds Scattered Clouds  
Wind Chill:   Ceiling: Unl
Heat Index:   Visibility: 10mi
Dew Point: -7°   Wind: 6mph
Humidity: 52%   Direction: 330°NNW
Pressure: 30.36"   Gusts: NA
Location:  39.8266°N, 75.1276°W
Report Text: KPHL 211454Z 33005KT 10SM FEW020 FEW035 SCT090 02/M07 A3036 RMK AO2 SLP278 T00221067 53008
Loading
Personal Weather Stations






























Interactive Weather Map New forecast layout! Learn more

10-Day Weather Forecast

Advertisements
Track Severe Weather on mobile